createdAt,value
2023-04-01T00:02:13.867Z,15.70
2023-04-01T00:04:42.593Z,15.20
2023-04-01T00:07:10.969Z,12.80
2023-04-01T00:09:38.833Z,12.00
2023-04-01T00:12:06.843Z,13.60
2023-04-01T00:14:35.873Z,14.10
2023-04-01T00:17:04.598Z,17.00
2023-04-01T00:19:33.650Z,13.30
2023-04-01T00:22:01.665Z,12.50
2023-04-01T00:24:29.776Z,14.50
2023-04-01T00:26:57.733Z,13.50
2023-04-01T00:29:30.217Z,14.10
2023-04-01T00:31:59.073Z,13.50
2023-04-01T00:34:27.368Z,14.90
2023-04-01T00:36:55.337Z,13.90
2023-04-01T00:39:23.409Z,13.60
2023-04-01T00:41:51.301Z,13.70
2023-04-01T00:44:30.056Z,12.70
2023-04-01T00:46:58.169Z,13.70
2023-04-01T00:49:35.361Z,16.50
2023-04-01T00:52:05.717Z,13.40
2023-04-01T00:54:34.994Z,12.40
2023-04-01T00:57:11.335Z,13.70
2023-04-01T00:59:46.016Z,13.70
2023-04-01T01:02:15.925Z,15.20
2023-04-01T01:04:44.059Z,16.70
2023-04-01T01:07:20.932Z,13.10
2023-04-01T01:10:10.573Z,15.00
2023-04-01T01:13:01.720Z,14.20
2023-04-01T01:15:38.521Z,14.30
2023-04-01T01:18:31.060Z,12.00
2023-04-01T01:21:44.724Z,13.60
2023-04-01T01:24:41.137Z,13.60
2023-04-01T01:27:14.909Z,15.40
2023-04-01T01:29:48.240Z,14.40
2023-04-01T01:32:46.239Z,13.60
2023-04-01T01:35:46.013Z,12.60
2023-04-01T01:38:18.256Z,14.90
2023-04-01T01:40:54.721Z,13.40
2023-04-01T01:43:31.898Z,11.80
2023-04-01T01:46:04.378Z,14.10
2023-04-01T01:48:34.528Z,14.70
2023-04-01T01:51:02.787Z,15.20
2023-04-01T01:53:30.820Z,16.20
2023-04-01T01:55:58.681Z,15.10
2023-04-01T01:58:32.877Z,14.70
2023-04-01T02:01:05.746Z,16.30
2023-04-01T02:03:38.005Z,14.50
2023-04-01T02:06:09.370Z,15.80
2023-04-01T02:08:58.746Z,15.50
2023-04-01T02:11:35.452Z,14.80
2023-04-01T02:14:27.958Z,15.00
2023-04-01T02:17:02.347Z,16.10
2023-04-01T02:19:58.234Z,14.00
2023-04-01T02:22:33.487Z,16.20
2023-04-01T02:25:22.098Z,18.70
2023-04-01T02:27:50.056Z,18.80
2023-04-01T02:30:18.508Z,16.30
2023-04-01T02:32:47.421Z,18.30
2023-04-01T02:35:18.165Z,17.70
2023-04-01T02:37:49.626Z,17.80
2023-04-01T02:40:18.666Z,17.20
2023-04-01T02:42:46.964Z,19.70
2023-04-01T02:45:15.818Z,15.60
2023-04-01T02:47:43.909Z,16.40
2023-04-01T02:50:12.101Z,18.50
2023-04-01T02:52:39.976Z,16.10
2023-04-01T02:55:08.378Z,18.20
2023-04-01T02:57:36.482Z,15.30
2023-04-01T03:00:05.248Z,14.90
2023-04-01T03:02:33.225Z,16.80
2023-04-01T03:05:01.176Z,16.20
2023-04-01T03:07:29.389Z,15.30
2023-04-01T03:09:57.196Z,15.80
2023-04-01T03:12:25.369Z,14.70
2023-04-01T03:14:53.308Z,17.70
2023-04-01T03:17:21.276Z,13.30
2023-04-01T03:19:49.280Z,12.10
2023-04-01T03:22:17.241Z,13.50
2023-04-01T03:24:45.243Z,12.90
2023-04-01T03:27:13.089Z,14.00
2023-04-01T03:29:41.273Z,11.40
2023-04-01T03:32:09.138Z,12.30
2023-04-01T03:34:38.452Z,15.70
2023-04-01T03:37:07.025Z,12.60
2023-04-01T03:39:36.000Z,11.70
2023-04-01T03:42:04.114Z,13.90
2023-04-01T03:44:39.321Z,11.90
2023-04-01T03:47:07.219Z,10.40
2023-04-01T03:49:35.434Z,11.30
2023-04-01T03:52:03.547Z,12.30
2023-04-01T03:54:31.471Z,11.60
2023-04-01T03:56:59.578Z,12.90
2023-04-01T03:59:27.625Z,13.30
2023-04-01T04:01:55.606Z,11.60
2023-04-01T04:04:23.506Z,12.50
2023-04-01T04:06:52.272Z,10.30
2023-04-01T04:09:20.126Z,10.70
2023-04-01T04:11:47.989Z,11.50
2023-04-01T04:14:15.961Z,10.50
2023-04-01T04:16:44.056Z,9.00
2023-04-01T04:19:13.325Z,10.10
2023-04-01T04:21:43.009Z,10.00
2023-04-01T04:24:11.246Z,9.20
2023-04-01T04:26:39.126Z,10.00
2023-04-01T04:29:07.085Z,9.80
2023-04-01T04:31:35.044Z,11.20
2023-04-01T04:34:03.080Z,9.40
2023-04-01T04:36:31.011Z,12.80
2023-04-01T04:39:02.840Z,12.80
2023-04-01T04:41:30.854Z,12.50
2023-04-01T04:43:59.606Z,12.30
2023-04-01T04:46:27.642Z,12.80
2023-04-01T04:48:55.713Z,11.70
2023-04-01T04:51:23.965Z,8.70
2023-04-01T04:53:52.984Z,12.20
2023-04-01T04:56:23.968Z,9.50
2023-04-01T04:58:52.008Z,12.40
2023-04-01T05:01:20.381Z,11.80
2023-04-01T05:03:48.581Z,12.00
2023-04-01T05:06:18.078Z,9.90
2023-04-01T05:08:47.130Z,9.80
2023-04-01T05:11:18.800Z,9.00
2023-04-01T05:13:47.411Z,9.70
2023-04-01T05:16:19.620Z,11.70
2023-04-01T05:18:48.604Z,10.70
2023-04-01T05:21:17.161Z,11.20
2023-04-01T05:23:45.447Z,9.50
2023-04-01T05:26:15.510Z,10.20
2023-04-01T05:28:43.392Z,11.60
2023-04-01T05:31:11.934Z,12.00
2023-04-01T05:33:40.408Z,28.90
2023-04-01T05:36:15.446Z,13.10
2023-04-01T05:38:44.756Z,9.50
2023-04-01T05:41:12.622Z,13.90
2023-04-01T05:43:41.340Z,14.30
2023-04-01T05:46:09.462Z,13.90
2023-04-01T05:48:38.330Z,10.60
2023-04-01T05:51:06.387Z,9.30
2023-04-01T05:53:34.322Z,9.40
2023-04-01T05:56:05.981Z,11.00
2023-04-01T05:58:33.855Z,11.40
2023-04-01T06:01:11.538Z,9.90
2023-04-01T06:03:43.850Z,8.10
2023-04-01T06:06:19.852Z,9.60
2023-04-01T06:08:47.718Z,9.90
2023-04-01T06:11:34.177Z,10.20
2023-04-01T06:14:36.060Z,9.90
2023-04-01T06:17:16.479Z,10.40
2023-04-01T06:20:33.052Z,11.10
2023-04-01T06:23:28.335Z,8.50
2023-04-01T06:26:19.556Z,7.90
2023-04-01T06:29:27.304Z,8.90
2023-04-01T06:32:30.503Z,7.90
2023-04-01T06:35:13.802Z,9.50
2023-04-01T06:37:54.202Z,10.50
2023-04-01T06:40:59.094Z,10.30
2023-04-01T06:44:00.778Z,8.20
2023-04-01T06:46:49.590Z,8.00
2023-04-01T06:49:23.564Z,7.90
2023-04-01T06:52:34.298Z,8.40
2023-04-01T06:55:27.911Z,8.50
2023-04-01T06:58:01.882Z,7.00
2023-04-01T07:00:40.414Z,6.90
2023-04-01T07:03:34.173Z,8.10
2023-04-01T07:06:10.026Z,8.90
2023-04-01T07:08:41.179Z,7.10
2023-04-01T07:11:28.248Z,8.50
2023-04-01T07:14:19.669Z,8.30
2023-04-01T07:17:07.505Z,8.00
2023-04-01T07:20:00.365Z,8.30
2023-04-01T07:22:33.730Z,9.60
2023-04-01T07:25:13.573Z,10.50
2023-04-01T07:27:43.389Z,9.30
2023-04-01T07:30:20.604Z,13.30
2023-04-01T07:33:00.603Z,13.80
2023-04-01T07:35:39.219Z,11.30
2023-04-01T07:38:10.008Z,12.00
2023-04-01T07:41:23.854Z,14.20
2023-04-01T07:44:01.292Z,11.50
2023-04-01T07:46:47.237Z,11.10
2023-04-01T07:49:46.548Z,14.30
2023-04-01T07:52:38.493Z,11.50
2023-04-01T07:55:25.619Z,11.20
2023-04-01T07:58:16.311Z,13.80
2023-04-01T08:01:05.183Z,14.10
2023-04-01T08:03:53.287Z,13.30
2023-04-01T08:06:48.737Z,17.10
2023-04-01T08:09:34.568Z,16.80
2023-04-01T08:12:28.298Z,14.50
2023-04-01T08:15:01.824Z,14.40
2023-04-01T08:18:09.675Z,14.50
2023-04-01T08:20:54.726Z,12.90
2023-04-01T08:23:48.786Z,11.90
2023-04-01T08:26:41.431Z,12.50
2023-04-01T08:29:36.686Z,15.20
2023-04-01T08:32:11.660Z,13.10
2023-04-01T08:34:42.786Z,12.80
2023-04-01T08:37:20.708Z,11.90
2023-04-01T08:39:59.989Z,9.10
2023-04-01T08:42:51.758Z,7.70
2023-04-01T08:45:54.068Z,7.30
2023-04-01T08:48:40.486Z,9.50
2023-04-01T08:51:49.635Z,9.10
2023-04-01T08:54:45.112Z,8.00
2023-04-01T08:57:37.068Z,9.00
2023-04-01T09:00:13.684Z,8.70
2023-04-01T09:03:05.380Z,9.90
2023-04-01T09:05:58.021Z,8.00
2023-04-01T09:08:46.809Z,6.50
2023-04-01T09:12:11.659Z,7.10
2023-04-01T09:14:58.886Z,8.20
2023-04-01T09:17:40.198Z,6.60
2023-04-01T09:20:51.310Z,6.60
2023-04-01T09:23:49.186Z,8.10
2023-04-01T09:26:59.832Z,8.40
2023-04-01T09:29:42.201Z,8.40
2023-04-01T09:32:18.910Z,8.60
2023-04-01T09:35:12.419Z,7.20
2023-04-01T09:38:01.288Z,6.00
2023-04-01T09:40:50.485Z,6.50
2023-04-01T09:43:49.081Z,7.40
2023-04-01T09:46:27.114Z,8.30
2023-04-01T09:49:44.506Z,11.60
2023-04-01T09:52:33.634Z,11.50
2023-04-01T09:55:42.634Z,15.40
2023-04-01T09:58:46.527Z,12.10
2023-04-01T10:02:12.121Z,14.00
2023-04-01T10:05:41.940Z,10.40
2023-04-01T10:08:53.179Z,11.50
2023-04-01T10:12:00.821Z,10.30
2023-04-01T10:14:43.556Z,10.70
2023-04-01T10:17:26.360Z,15.80
2023-04-01T10:20:37.456Z,14.80
2023-04-01T10:23:14.187Z,15.00
2023-04-01T10:26:22.325Z,16.90
2023-04-01T10:29:24.959Z,18.00
2023-04-01T10:32:13.891Z,14.70
2023-04-01T10:34:57.825Z,16.20
2023-04-01T10:38:01.192Z,13.30
2023-04-01T10:41:10.819Z,14.00
2023-04-01T10:44:33.566Z,18.20
2023-04-01T10:47:16.527Z,19.60
2023-04-01T10:52:57.416Z,20.30
2023-04-01T10:55:46.464Z,25.60
2023-04-01T10:58:40.285Z,20.50
2023-04-01T11:01:37.711Z,25.20
2023-04-01T11:04:37.995Z,25.00
2023-04-01T11:08:18.020Z,31.10
2023-04-01T11:11:19.636Z,28.50
2023-04-01T11:14:59.724Z,37.60
2023-04-01T11:17:49.232Z,23.60
2023-04-01T11:21:03.019Z,25.70
2023-04-01T11:24:03.910Z,25.80
2023-04-01T11:26:54.549Z,28.70
2023-04-01T11:30:00.625Z,28.00
2023-04-01T11:32:50.522Z,29.70
2023-04-01T11:35:37.881Z,27.20
2023-04-01T11:38:34.489Z,34.90
2023-04-01T11:41:33.084Z,30.50
2023-04-01T11:44:19.064Z,29.90
2023-04-01T11:47:05.150Z,30.20
2023-04-01T11:50:09.958Z,31.10
2023-04-01T11:53:20.375Z,33.90
2023-04-01T11:56:08.582Z,29.30
2023-04-01T11:58:51.582Z,31.40
2023-04-01T12:01:22.572Z,32.10
2023-04-01T12:04:27.905Z,29.70
2023-04-01T12:07:13.773Z,34.00
2023-04-01T12:10:06.554Z,35.60
2023-04-01T12:13:06.100Z,39.80
2023-04-01T12:15:58.285Z,42.60
2023-04-01T12:18:40.070Z,41.40
2023-04-01T12:21:38.815Z,36.90
2023-04-01T12:24:48.029Z,40.50
2023-04-01T12:27:36.883Z,44.50
2023-04-01T12:30:47.144Z,39.70
2023-04-01T12:33:42.681Z,40.60
2023-04-01T12:36:20.565Z,38.60
2023-04-01T12:39:21.399Z,41.20
2023-04-01T12:42:18.251Z,36.30
2023-04-01T12:45:15.010Z,38.10
2023-04-01T12:48:12.870Z,34.20
2023-04-01T12:51:08.577Z,35.60
2023-04-01T12:54:19.732Z,84.90
2023-04-01T12:57:07.322Z,93.00
2023-04-01T12:59:45.036Z,41.10
2023-04-01T13:02:39.232Z,32.00
2023-04-01T13:05:24.546Z,37.80
2023-04-01T13:08:06.697Z,34.80
2023-04-01T13:11:37.826Z,33.40
2023-04-01T13:14:11.979Z,37.50
2023-04-01T13:17:34.876Z,35.00
2023-04-01T13:20:36.749Z,35.70
2023-04-01T13:23:34.110Z,40.30
2023-04-01T13:26:14.808Z,42.30
2023-04-01T13:28:49.026Z,40.00
2023-04-01T13:31:44.258Z,35.20
2023-04-01T13:34:57.734Z,28.00
2023-04-01T13:37:50.260Z,27.40
2023-04-01T13:40:46.773Z,29.70
2023-04-01T13:43:34.753Z,31.20
2023-04-01T13:46:02.750Z,33.20
2023-04-01T13:49:04.010Z,30.60
2023-04-01T13:51:50.621Z,25.30
2023-04-01T13:55:14.101Z,31.10
2023-04-01T13:58:36.291Z,31.90
2023-04-01T14:01:27.308Z,27.70
2023-04-01T14:04:21.176Z,30.00
2023-04-01T14:07:37.935Z,32.00
2023-04-01T14:10:26.027Z,53.40
2023-04-01T14:13:38.195Z,45.50
2023-04-01T14:17:09.049Z,46.50
2023-04-01T14:20:32.739Z,78.70
2023-04-01T14:25:58.221Z,25.10
2023-04-01T14:28:56.458Z,32.10
2023-04-01T14:31:43.221Z,31.10
2023-04-01T14:34:35.734Z,31.30
2023-04-01T14:37:50.975Z,85.90
2023-04-01T14:40:35.145Z,77.70
2023-04-01T14:43:12.210Z,43.60
2023-04-01T14:46:07.958Z,20.50
2023-04-01T14:48:58.729Z,23.30
2023-04-01T14:51:31.283Z,20.50
2023-04-01T14:54:05.071Z,19.90
2023-04-01T14:56:42.981Z,18.90
2023-04-01T14:59:28.956Z,18.40
2023-04-01T15:02:15.819Z,18.40
2023-04-01T15:05:08.407Z,23.30
2023-04-01T15:07:52.249Z,19.90
2023-04-01T15:10:32.812Z,20.60
2023-04-01T15:13:31.399Z,18.60
2023-04-01T15:16:38.709Z,18.20
2023-04-01T15:19:37.537Z,20.20
2023-04-01T15:22:52.873Z,21.00
2023-04-01T15:25:51.024Z,17.00
2023-04-01T15:28:46.047Z,17.60
2023-04-01T15:31:50.153Z,17.80
2023-04-01T15:34:59.058Z,19.00
2023-04-01T15:37:55.314Z,35.00
2023-04-01T15:40:52.412Z,21.00
2023-04-01T15:43:33.262Z,17.60
2023-04-01T15:46:04.199Z,22.60
2023-04-01T15:48:56.726Z,19.10
2023-04-01T15:51:42.966Z,20.20
2023-04-01T15:54:26.106Z,18.20
2023-04-01T15:57:10.235Z,18.80
2023-04-01T15:59:48.467Z,22.50
2023-04-01T16:02:50.320Z,21.70
2023-04-01T16:05:45.109Z,21.00
2023-04-01T16:08:44.118Z,18.60
2023-04-01T16:11:56.605Z,24.00
2023-04-01T16:14:49.065Z,18.90
2023-04-01T16:17:50.422Z,29.40
2023-04-01T16:20:54.969Z,25.60
2023-04-01T16:23:52.811Z,33.30
2023-04-01T16:26:45.616Z,31.60
2023-04-01T16:29:16.485Z,26.90
2023-04-01T16:31:47.237Z,28.40
2023-04-01T16:34:32.137Z,34.10
2023-04-01T16:37:21.532Z,36.10
2023-04-01T16:40:10.624Z,26.00
2023-04-01T16:43:07.286Z,19.10
2023-04-01T16:45:44.441Z,21.40
2023-04-01T16:48:21.197Z,21.00
2023-04-01T16:51:04.069Z,22.80
2023-04-01T16:53:49.501Z,22.50
2023-04-01T16:56:43.617Z,23.20
2023-04-01T16:59:11.798Z,30.90
2023-04-01T17:01:56.069Z,29.80
2023-04-01T17:05:16.765Z,30.80
2023-04-01T17:07:57.853Z,18.40
2023-04-01T17:10:59.570Z,20.20
2023-04-01T17:13:32.576Z,19.40
2023-04-01T17:16:37.117Z,15.10
2023-04-01T17:19:42.932Z,16.70
2023-04-01T17:22:27.329Z,23.00
2023-04-01T17:25:22.842Z,27.70
2023-04-01T17:28:22.805Z,41.70
2023-04-01T17:31:05.586Z,43.90
2023-04-01T17:33:39.455Z,17.90
2023-04-01T17:36:27.593Z,22.30
2023-04-01T17:39:17.301Z,17.00
2023-04-01T17:42:26.462Z,21.30
2023-04-01T17:45:32.185Z,25.80
2023-04-01T17:48:39.567Z,23.00
2023-04-01T17:51:45.857Z,21.00
2023-04-01T17:54:38.182Z,22.90
2023-04-01T17:57:28.928Z,22.20
2023-04-01T18:00:08.162Z,18.90
2023-04-01T18:03:20.311Z,17.60
2023-04-01T18:06:37.237Z,21.80
2023-04-01T18:09:48.214Z,20.70
2023-04-01T18:13:20.939Z,25.30
2023-04-01T18:16:26.103Z,27.10
2023-04-01T18:19:58.427Z,23.10
2023-04-01T18:22:57.766Z,19.10
2023-04-01T18:25:41.939Z,23.10
2023-04-01T18:29:07.774Z,16.70
2023-04-01T18:31:45.470Z,23.40
2023-04-01T18:34:20.738Z,20.90
2023-04-01T18:37:13.771Z,29.80
2023-04-01T18:42:35.542Z,15.80
2023-04-01T18:45:53.262Z,18.20
2023-04-01T18:48:58.111Z,56.10
2023-04-01T18:51:47.347Z,23.70
2023-04-01T18:54:41.758Z,22.50
2023-04-01T18:57:18.097Z,17.80
2023-04-01T19:00:06.749Z,17.90
2023-04-01T19:02:56.447Z,17.90
2023-04-01T19:05:37.231Z,20.40
2023-04-01T19:08:33.710Z,17.60
2023-04-01T19:11:13.480Z,14.70
2023-04-01T19:14:00.073Z,14.80
2023-04-01T19:16:44.920Z,17.40
2023-04-01T19:19:52.859Z,19.60
2023-04-01T19:22:57.443Z,18.30
2023-04-01T19:25:52.436Z,18.20
2023-04-01T19:28:49.799Z,24.80
2023-04-01T19:32:11.535Z,25.70
2023-04-01T19:34:51.023Z,18.10
2023-04-01T19:37:46.533Z,18.10
2023-04-01T19:40:55.091Z,22.40
2023-04-01T19:43:52.249Z,34.40
2023-04-01T19:46:33.255Z,51.30
2023-04-01T19:49:26.322Z,64.90
2023-04-01T19:52:27.898Z,45.00
2023-04-01T19:55:54.238Z,15.10
2023-04-01T19:58:29.239Z,20.30
2023-04-01T20:01:03.847Z,14.90
2023-04-01T20:04:05.825Z,14.10
2023-04-01T20:06:42.899Z,15.60
2023-04-01T20:09:35.037Z,16.20
2023-04-01T20:12:50.678Z,17.80
2023-04-01T20:15:42.181Z,15.50
2023-04-01T20:18:41.342Z,16.60
2023-04-01T20:21:41.272Z,14.30
2023-04-01T20:24:16.168Z,15.30
2023-04-01T20:26:54.786Z,17.90
2023-04-01T20:29:46.913Z,20.60
2023-04-01T20:32:51.395Z,17.40
2023-04-01T20:35:28.303Z,19.40
2023-04-01T20:38:06.164Z,21.30
2023-04-01T20:41:49.816Z,16.40
2023-04-01T20:44:52.584Z,21.90
2023-04-01T20:48:00.290Z,13.30
2023-04-01T20:50:58.361Z,14.80
2023-04-01T20:53:56.033Z,21.70
2023-04-01T20:56:46.085Z,15.20
2023-04-01T20:59:58.025Z,20.40
2023-04-01T21:02:54.220Z,14.50
2023-04-01T21:05:52.993Z,11.00
2023-04-01T21:08:41.569Z,14.00
2023-04-01T21:11:24.677Z,18.10
2023-04-01T21:14:07.823Z,12.30
2023-04-01T21:17:20.266Z,16.90
2023-04-01T21:20:23.652Z,16.50
2023-04-01T21:25:42.417Z,27.40
2023-04-01T21:28:29.184Z,13.40
2023-04-01T21:31:18.262Z,21.80
2023-04-01T21:34:16.888Z,17.30
2023-04-01T21:37:25.884Z,14.60
2023-04-01T21:40:16.951Z,10.40
2023-04-01T21:43:00.502Z,12.10
2023-04-01T21:46:01.459Z,11.50
2023-04-01T21:49:14.877Z,13.30
2023-04-01T21:52:38.044Z,12.60
2023-04-01T21:55:36.907Z,11.90
2023-04-01T21:58:48.859Z,11.00
2023-04-01T22:02:25.080Z,16.40
2023-04-01T22:05:22.373Z,12.50
2023-04-01T22:08:27.485Z,12.30
2023-04-01T22:11:35.466Z,10.20
2023-04-01T22:14:08.978Z,12.00
2023-04-01T22:16:55.152Z,11.10
2023-04-01T22:19:38.052Z,10.60
2023-04-01T22:22:10.058Z,18.90
2023-04-01T22:24:59.492Z,23.00
2023-04-01T22:27:41.998Z,14.30
2023-04-01T22:30:21.292Z,29.80
2023-04-01T22:32:54.148Z,15.20
2023-04-01T22:35:37.391Z,16.10
2023-04-01T22:38:35.424Z,21.60
2023-04-01T22:41:19.878Z,21.40
2023-04-01T22:43:48.735Z,34.80
2023-04-01T22:46:50.172Z,32.50
2023-04-01T22:49:43.957Z,22.60
2023-04-01T22:52:35.966Z,19.60
2023-04-01T22:55:14.932Z,19.30
2023-04-01T22:58:00.982Z,18.90
2023-04-01T23:00:42.104Z,17.20
2023-04-01T23:03:19.116Z,17.70
2023-04-01T23:05:59.683Z,25.80
2023-04-01T23:09:10.486Z,30.90
2023-04-01T23:12:08.548Z,29.10
2023-04-01T23:14:38.500Z,18.20
2023-04-01T23:17:42.150Z,24.50
2023-04-01T23:20:27.888Z,19.60
2023-04-01T23:23:17.348Z,19.20
2023-04-01T23:26:09.567Z,21.50
2023-04-01T23:28:51.527Z,18.60
2023-04-01T23:31:30.543Z,14.40
2023-04-01T23:34:12.685Z,16.40
2023-04-01T23:36:48.380Z,16.10
2023-04-01T23:39:25.199Z,16.20
2023-04-01T23:41:57.235Z,14.20
2023-04-01T23:44:26.953Z,18.90
2023-04-01T23:46:55.681Z,24.10
2023-04-01T23:49:31.815Z,14.80
2023-04-01T23:52:04.479Z,11.20
2023-04-01T23:57:21.808Z,11.70
